Terminal Aerodrome Forecast
Issued by NWS

Home | Current Version | Previous Version | Text Only | Print | Product List | Glossary On
Versions: 1 2 3 4 5 6 7 8 9 10 11 12 13 14 15 16 17 18 19 20 21 22 23 24 25 26 27 28 29 30 31 32
000
FTUS45 KBOU 070756 AAA
TAFAPA
TAF AMD
KAPA 070756Z 0708/0806 28014KT P6SM SCT150 BKN220
      TEMPO 0708/0710 28015G25KT
     FM071000 22010KT P6SM FEW150 BKN220
     FM071200 VRB06KT P6SM BKN220
     FM071600 36009KT P6SM SCT200
     FM072100 11007KT P6SM FEW140 SCT200
     FM080300 18009KT P6SM SCT200=

USA.gov is the U.S. government's official web portal to all federal, state and local government web resources and services.